sensor_id;sensor_type;location;lat;lon;timestamp;pressure;altitude;pressure_sealevel;temperature;humidity
69153;BME280;56261;51.580;4.578;2022-10-16T00:01:26;101086.69;;;12.98;100.00
69153;BME280;56261;51.580;4.578;2022-10-16T00:03:52;101082.47;;;13.04;100.00
69153;BME280;56261;51.580;4.578;2022-10-16T00:06:19;101080.03;;;13.17;100.00
69153;BME280;56261;51.580;4.578;2022-10-16T00:08:45;101081.00;;;13.16;100.00
69153;BME280;56261;51.580;4.578;2022-10-16T00:11:17;101075.28;;;13.19;100.00
69153;BME280;56261;51.580;4.578;2022-10-16T00:13:45;101081.19;;;13.15;100.00
69153;BME280;56261;51.580;4.578;2022-10-16T00:16:11;101078.41;;;13.31;100.00
69153;BME280;56261;51.580;4.578;2022-10-16T00:18:37;101076.78;;;13.22;100.00
69153;BME280;56261;51.580;4.578;2022-10-16T00:21:05;101076.41;;;13.25;100.00
69153;BME280;56261;51.580;4.578;2022-10-16T00:23:32;101088.94;;;13.33;100.00
69153;BME280;56261;51.580;4.578;2022-10-16T00:26:00;101083.78;;;13.31;100.00
69153;BME280;56261;51.580;4.578;2022-10-16T00:28:26;101090.13;;;13.30;100.00
69153;BME280;56261;51.580;4.578;2022-10-16T00:30:51;101097.03;;;13.24;100.00
69153;BME280;56261;51.580;4.578;2022-10-16T00:33:17;101108.09;;;13.21;100.00
69153;BME280;56261;51.580;4.578;2022-10-16T00:35:42;101106.91;;;13.24;100.00
69153;BME280;56261;51.580;4.578;2022-10-16T00:38:09;101108.28;;;13.20;100.00
69153;BME280;56261;51.580;4.578;2022-10-16T00:40:34;101112.78;;;13.19;100.00
69153;BME280;56261;51.580;4.578;2022-10-16T00:43:00;101120.94;;;13.26;100.00
69153;BME280;56261;51.580;4.578;2022-10-16T00:45:25;101108.41;;;13.26;100.00
69153;BME280;56261;51.580;4.578;2022-10-16T00:47:52;101109.69;;;13.31;100.00
69153;BME280;56261;51.580;4.578;2022-10-16T00:50:33;101106.19;;;13.30;100.00
69153;BME280;56261;51.580;4.578;2022-10-16T00:53:01;101097.38;;;13.21;100.00
69153;BME280;56261;51.580;4.578;2022-10-16T00:55:28;101094.66;;;13.29;100.00
69153;BME280;56261;51.580;4.578;2022-10-16T00:57:56;101084.34;;;13.18;100.00
69153;BME280;56261;51.580;4.578;2022-10-16T01:00:24;101078.75;;;13.28;100.00
69153;BME280;56261;51.580;4.578;2022-10-16T01:02:54;101084.84;;;13.22;100.00
69153;BME280;56261;51.580;4.578;2022-10-16T01:05:22;101083.22;;;13.13;100.00
69153;BME280;56261;51.580;4.578;2022-10-16T01:08:44;101093.34;;;13.02;100.00
69153;BME280;56261;51.580;4.578;2022-10-16T01:11:10;101084.94;;;13.05;100.00
69153;BME280;56261;51.580;4.578;2022-10-16T01:13:41;101085.66;;;12.99;100.00
69153;BME280;56261;51.580;4.578;2022-10-16T01:16:13;101083.78;;;12.85;100.00
69153;BME280;56261;51.580;4.578;2022-10-16T01:18:50;101085.63;;;12.84;100.00
69153;BME280;56261;51.580;4.578;2022-10-16T01:21:29;101087.41;;;12.92;100.00
69153;BME280;56261;51.580;4.578;2022-10-16T01:35:09;101105.91;;;12.79;100.00
69153;BME280;56261;51.580;4.578;2022-10-16T01:37:37;101095.81;;;12.89;100.00
69153;BME280;56261;51.580;4.578;2022-10-16T01:40:09;101082.59;;;12.87;100.00
69153;BME280;56261;51.580;4.578;2022-10-16T01:42:44;101091.09;;;12.91;100.00
69153;BME280;56261;51.580;4.578;2022-10-16T01:45:13;101085.63;;;12.84;100.00
69153;BME280;56261;51.580;4.578;2022-10-16T01:47:40;101097.56;;;12.97;100.00
69153;BME280;56261;51.580;4.578;2022-10-16T01:50:08;101096.09;;;12.94;100.00
69153;BME280;56261;51.580;4.578;2022-10-16T01:52:39;101085.66;;;12.99;100.00
69153;BME280;56261;51.580;4.578;2022-10-16T01:55:07;101087.63;;;13.05;100.00
69153;BME280;56261;51.580;4.578;2022-10-16T01:57:36;101092.59;;;12.94;100.00
69153;BME280;56261;51.580;4.578;2022-10-16T02:00:08;101102.47;;;12.93;100.00
69153;BME280;56261;51.580;4.578;2022-10-16T02:02:35;101103.53;;;13.07;100.00
69153;BME280;56261;51.580;4.578;2022-10-16T02:05:30;101095.72;;;13.20;100.00
69153;BME280;56261;51.580;4.578;2022-10-16T02:07:58;101098.66;;;13.11;100.00
69153;BME280;56261;51.580;4.578;2022-10-16T02:10:24;101105.19;;;13.08;100.00
69153;BME280;56261;51.580;4.578;2022-10-16T02:12:57;101101.72;;;13.22;100.00
69153;BME280;56261;51.580;4.578;2022-10-16T02:15:24;101084.28;;;13.26;100.00
69153;BME280;56261;51.580;4.578;2022-10-16T02:17:49;101093.16;;;13.27;100.00
69153;BME280;56261;51.580;4.578;2022-10-16T02:20:15;101087.31;;;13.23;100.00
69153;BME280;56261;51.580;4.578;2022-10-16T02:22:45;101097.16;;;13.31;100.00
69153;BME280;56261;51.580;4.578;2022-10-16T02:25:18;101094.38;;;13.39;100.00
69153;BME280;56261;51.580;4.578;2022-10-16T02:28:00;101092.56;;;13.40;100.00
69153;BME280;56261;51.580;4.578;2022-10-16T02:32:58;101111.50;;;13.15;100.00
69153;BME280;56261;51.580;4.578;2022-10-16T02:35:25;101106.88;;;13.09;100.00
69153;BME280;56261;51.580;4.578;2022-10-16T02:37:53;101103.91;;;13.04;100.00
69153;BME280;56261;51.580;4.578;2022-10-16T02:40:19;101107.75;;;13.01;100.00
69153;BME280;56261;51.580;4.578;2022-10-16T02:42:50;101108.94;;;12.99;100.00
69153;BME280;56261;51.580;4.578;2022-10-16T02:45:18;101101.84;;;13.06;100.00
69153;BME280;56261;51.580;4.578;2022-10-16T02:47:43;101093.94;;;12.90;100.00
69153;BME280;56261;51.580;4.578;2022-10-16T02:50:08;101101.03;;;12.82;100.00
69153;BME280;56261;51.580;4.578;2022-10-16T02:52:34;101097.53;;;12.82;100.00
69153;BME280;56261;51.580;4.578;2022-10-16T02:54:59;101103.88;;;12.81;100.00
69153;BME280;56261;51.580;4.578;2022-10-16T02:57:25;101119.47;;;12.77;100.00
69153;BME280;56261;51.580;4.578;2022-10-16T02:59:50;101101.28;;;12.73;100.00
69153;BME280;56261;51.580;4.578;2022-10-16T03:02:15;101108.22;;;12.82;100.00
69153;BME280;56261;51.580;4.578;2022-10-16T03:04:41;101112.28;;;12.78;100.00
69153;BME280;56261;51.580;4.578;2022-10-16T03:07:06;101109.47;;;12.71;100.00
69153;BME280;56261;51.580;4.578;2022-10-16T03:09:32;101112.03;;;12.64;100.00
69153;BME280;56261;51.580;4.578;2022-10-16T03:11:58;101119.56;;;12.61;100.00
69153;BME280;56261;51.580;4.578;2022-10-16T03:14:24;101128.75;;;12.66;100.00
69153;BME280;56261;51.580;4.578;2022-10-16T03:16:49;101122.72;;;12.64;100.00
69153;BME280;56261;51.580;4.578;2022-10-16T03:19:16;101123.38;;;12.66;100.00
69153;BME280;56261;51.580;4.578;2022-10-16T03:21:41;101133.59;;;12.63;100.00
69153;BME280;56261;51.580;4.578;2022-10-16T03:24:07;101133.44;;;12.64;100.00
69153;BME280;56261;51.580;4.578;2022-10-16T03:26:32;101135.81;;;12.59;100.00
69153;BME280;56261;51.580;4.578;2022-10-16T03:28:58;101132.28;;;12.59;100.00
69153;BME280;56261;51.580;4.578;2022-10-16T03:31:23;101137.47;;;12.60;100.00
69153;BME280;56261;51.580;4.578;2022-10-16T03:33:49;101134.34;;;12.49;100.00
69153;BME280;56261;51.580;4.578;2022-10-16T03:36:14;101150.84;;;12.60;100.00
69153;BME280;56261;51.580;4.578;2022-10-16T03:38:39;101143.84;;;12.59;100.00
69153;BME280;56261;51.580;4.578;2022-10-16T03:41:05;101149.53;;;12.56;100.00
69153;BME280;56261;51.580;4.578;2022-10-16T03:43:33;101152.84;;;12.58;100.00
69153;BME280;56261;51.580;4.578;2022-10-16T03:45:59;101153.53;;;12.52;100.00
69153;BME280;56261;51.580;4.578;2022-10-16T03:48:24;101151.72;;;12.53;100.00
69153;BME280;56261;51.580;4.578;2022-10-16T03:50:50;101149.59;;;12.48;100.00
69153;BME280;56261;51.580;4.578;2022-10-16T03:53:16;101156.75;;;12.48;100.00
69153;BME280;56261;51.580;4.578;2022-10-16T03:55:42;101147.53;;;12.50;100.00
69153;BME280;56261;51.580;4.578;2022-10-16T03:58:08;101153.53;;;12.52;100.00
69153;BME280;56261;51.580;4.578;2022-10-16T04:00:33;101158.25;;;12.50;100.00
69153;BME280;56261;51.580;4.578;2022-10-16T04:02:59;101151.78;;;12.36;100.00
69153;BME280;56261;51.580;4.578;2022-10-16T04:05:25;101169.00;;;12.42;100.00
69153;BME280;56261;51.580;4.578;2022-10-16T04:07:50;101167.16;;;12.34;100.00
69153;BME280;56261;51.580;4.578;2022-10-16T04:10:16;101177.53;;;12.37;100.00
69153;BME280;56261;51.580;4.578;2022-10-16T04:12:41;101174.88;;;12.37;100.00
69153;BME280;56261;51.580;4.578;2022-10-16T04:15:07;101179.00;;;12.48;100.00
69153;BME280;56261;51.580;4.578;2022-10-16T04:17:32;101178.94;;;12.56;100.00
69153;BME280;56261;51.580;4.578;2022-10-16T04:19:58;101172.53;;;12.34;100.00
69153;BME280;56261;51.580;4.578;2022-10-16T04:22:23;101181.41;;;12.35;100.00
69153;BME280;56261;51.580;4.578;2022-10-16T04:24:48;101184.69;;;12.45;100.00
69153;BME280;56261;51.580;4.578;2022-10-16T04:27:14;101184.91;;;12.35;100.00
69153;BME280;56261;51.580;4.578;2022-10-16T04:29:39;101180.38;;;12.36;100.00
69153;BME280;56261;51.580;4.578;2022-10-16T04:32:04;101187.75;;;12.34;100.00
69153;BME280;56261;51.580;4.578;2022-10-16T04:34:30;101183.88;;;12.36;100.00
69153;BME280;56261;51.580;4.578;2022-10-16T04:36:55;101181.41;;;12.27;100.00
69153;BME280;56261;51.580;4.578;2022-10-16T04:39:21;101195.31;;;12.22;100.00
69153;BME280;56261;51.580;4.578;2022-10-16T04:41:46;101197.47;;;12.27;100.00
69153;BME280;56261;51.580;4.578;2022-10-16T04:44:12;101204.00;;;12.24;100.00
69153;BME280;56261;51.580;4.578;2022-10-16T04:46:37;101207.50;;;12.24;100.00
69153;BME280;56261;51.580;4.578;2022-10-16T04:49:02;101214.34;;;12.27;100.00
69153;BME280;56261;51.580;4.578;2022-10-16T04:51:28;101205.00;;;12.23;100.00
69153;BME280;56261;51.580;4.578;2022-10-16T04:53:53;101222.22;;;12.20;100.00
69153;BME280;56261;51.580;4.578;2022-10-16T04:56:20;101218.19;;;12.24;100.00
69153;BME280;56261;51.580;4.578;2022-10-16T04:58:46;101219.38;;;12.22;100.00
69153;BME280;56261;51.580;4.578;2022-10-16T05:01:11;101220.34;;;12.29;100.00
69153;BME280;56261;51.580;4.578;2022-10-16T05:03:37;101221.19;;;12.30;100.00
69153;BME280;56261;51.580;4.578;2022-10-16T05:06:05;101228.38;;;12.37;100.00
69153;BME280;56261;51.580;4.578;2022-10-16T05:08:31;101227.88;;;12.34;100.00
69153;BME280;56261;51.580;4.578;2022-10-16T05:10:56;101232.84;;;12.37;100.00
69153;BME280;56261;51.580;4.578;2022-10-16T05:13:21;101235.38;;;12.38;100.00
69153;BME280;56261;51.580;4.578;2022-10-16T05:15:48;101238.22;;;12.37;100.00
69153;BME280;56261;51.580;4.578;2022-10-16T05:18:13;101240.41;;;12.33;100.00
69153;BME280;56261;51.580;4.578;2022-10-16T05:20:39;101253.78;;;12.33;100.00
69153;BME280;56261;51.580;4.578;2022-10-16T05:23:04;101253.44;;;12.36;100.00
69153;BME280;56261;51.580;4.578;2022-10-16T05:25:30;101251.59;;;12.37;100.00
69153;BME280;56261;51.580;4.578;2022-10-16T05:27:55;101252.44;;;12.37;100.00
69153;BME280;56261;51.580;4.578;2022-10-16T05:30:20;101263.44;;;12.42;100.00
69153;BME280;56261;51.580;4.578;2022-10-16T05:32:50;101263.59;;;12.49;100.00
69153;BME280;56261;51.580;4.578;2022-10-16T05:35:17;101259.41;;;12.55;100.00
69153;BME280;56261;51.580;4.578;2022-10-16T05:37:42;101265.44;;;12.49;100.00
69153;BME280;56261;51.580;4.578;2022-10-16T05:40:08;101267.63;;;12.45;100.00
69153;BME280;56261;51.580;4.578;2022-10-16T05:42:34;101273.13;;;12.52;100.00
69153;BME280;56261;51.580;4.578;2022-10-16T05:44:59;101275.44;;;12.63;100.00
69153;BME280;56261;51.580;4.578;2022-10-16T05:47:25;101274.97;;;12.59;100.00
69153;BME280;56261;51.580;4.578;2022-10-16T05:49:50;101278.94;;;12.63;100.00
69153;BME280;56261;51.580;4.578;2022-10-16T05:52:15;101292.50;;;12.62;100.00
69153;BME280;56261;51.580;4.578;2022-10-16T05:54:41;101295.13;;;12.70;100.00
69153;BME280;56261;51.580;4.578;2022-10-16T05:57:06;101299.81;;;12.76;100.00
69153;BME280;56261;51.580;4.578;2022-10-16T05:59:32;101300.31;;;12.80;100.00
69153;BME280;56261;51.580;4.578;2022-10-16T06:01:57;101290.44;;;12.80;100.00
69153;BME280;56261;51.580;4.578;2022-10-16T06:04:23;101303.50;;;12.75;100.00
69153;BME280;56261;51.580;4.578;2022-10-16T06:06:48;101309.16;;;12.80;100.00
69153;BME280;56261;51.580;4.578;2022-10-16T06:09:13;101306.66;;;12.79;100.00
69153;BME280;56261;51.580;4.578;2022-10-16T06:11:39;101311.38;;;12.69;100.00
69153;BME280;56261;51.580;4.578;2022-10-16T06:14:04;101318.75;;;12.66;100.00
69153;BME280;56261;51.580;4.578;2022-10-16T06:16:33;101319.56;;;12.75;100.00
69153;BME280;56261;51.580;4.578;2022-10-16T06:18:59;101325.94;;;12.66;100.00
69153;BME280;56261;51.580;4.578;2022-10-16T06:21:26;101325.28;;;12.64;100.00
69153;BME280;56261;51.580;4.578;2022-10-16T06:23:53;101326.41;;;12.70;100.00
69153;BME280;56261;51.580;4.578;2022-10-16T06:26:20;101325.78;;;12.59;100.00
69153;BME280;56261;51.580;4.578;2022-10-16T06:28:47;101332.13;;;12.66;100.00
69153;BME280;56261;51.580;4.578;2022-10-16T06:31:13;101341.66;;;12.69;100.00
69153;BME280;56261;51.580;4.578;2022-10-16T06:33:39;101344.31;;;12.77;100.00
69153;BME280;56261;51.580;4.578;2022-10-16T06:36:06;101349.97;;;12.82;100.00
69153;BME280;56261;51.580;4.578;2022-10-16T06:38:32;101343.28;;;12.86;100.00
69153;BME280;56261;51.580;4.578;2022-10-16T06:40:58;101348.78;;;12.85;100.00
69153;BME280;56261;51.580;4.578;2022-10-16T06:43:24;101351.94;;;12.97;100.00
69153;BME280;56261;51.580;4.578;2022-10-16T06:45:53;101364.31;;;12.98;100.00
69153;BME280;56261;51.580;4.578;2022-10-16T06:48:19;101359.78;;;13.06;100.00
69153;BME280;56261;51.580;4.578;2022-10-16T06:51:04;101367.59;;;13.16;100.00
69153;BME280;56261;51.580;4.578;2022-10-16T06:53:32;101377.41;;;13.40;100.00
69153;BME280;56261;51.580;4.578;2022-10-16T06:58:34;101368.63;;;13.55;100.00
69153;BME280;56261;51.580;4.578;2022-10-16T07:00:59;101378.94;;;13.66;100.00
69153;BME280;56261;51.580;4.578;2022-10-16T07:03:25;101382.41;;;13.75;100.00
69153;BME280;56261;51.580;4.578;2022-10-16T07:05:50;101375.50;;;13.80;100.00
69153;BME280;56261;51.580;4.578;2022-10-16T07:08:15;101375.91;;;13.92;100.00
69153;BME280;56261;51.580;4.578;2022-10-16T07:10:41;101384.66;;;13.86;100.00
69153;BME280;56261;51.580;4.578;2022-10-16T07:13:06;101399.22;;;13.91;100.00
69153;BME280;56261;51.580;4.578;2022-10-16T07:15:33;101395.06;;;13.89;100.00
69153;BME280;56261;51.580;4.578;2022-10-16T07:17:59;101401.94;;;13.83;100.00
69153;BME280;56261;51.580;4.578;2022-10-16T07:20:24;101408.81;;;13.86;100.00
69153;BME280;56261;51.580;4.578;2022-10-16T07:22:49;101409.56;;;13.72;100.00
69153;BME280;56261;51.580;4.578;2022-10-16T07:25:15;101422.16;;;13.71;100.00
69153;BME280;56261;51.580;4.578;2022-10-16T07:27:41;101425.56;;;13.57;100.00
69153;BME280;56261;51.580;4.578;2022-10-16T07:30:07;101424.22;;;13.53;100.00
69153;BME280;56261;51.580;4.578;2022-10-16T07:32:33;101435.97;;;13.52;100.00
69153;BME280;56261;51.580;4.578;2022-10-16T07:34:58;101443.00;;;13.53;100.00
69153;BME280;56261;51.580;4.578;2022-10-16T07:37:24;101450.47;;;13.65;100.00
69153;BME280;56261;51.580;4.578;2022-10-16T07:39:49;101446.72;;;14.06;100.00
69153;BME280;56261;51.580;4.578;2022-10-16T07:42:14;101448.94;;;14.02;100.00
69153;BME280;56261;51.580;4.578;2022-10-16T07:44:40;101452.94;;;14.52;100.00
69153;BME280;56261;51.580;4.578;2022-10-16T07:47:06;101445.13;;;14.43;100.00
69153;BME280;56261;51.580;4.578;2022-10-16T07:49:32;101457.41;;;14.98;100.00
69153;BME280;56261;51.580;4.578;2022-10-16T07:51:57;101451.84;;;15.00;100.00
69153;BME280;56261;51.580;4.578;2022-10-16T07:54:22;101468.38;;;15.11;100.00
69153;BME280;56261;51.580;4.578;2022-10-16T07:56:48;101473.38;;;15.29;100.00
69153;BME280;56261;51.580;4.578;2022-10-16T07:59:13;101470.13;;;15.34;100.00
69153;BME280;56261;51.580;4.578;2022-10-16T08:01:39;101466.69;;;15.40;100.00
69153;BME280;56261;51.580;4.578;2022-10-16T08:04:05;101483.94;;;15.31;100.00
69153;BME280;56261;51.580;4.578;2022-10-16T08:06:35;101483.63;;;15.55;100.00
69153;BME280;56261;51.580;4.578;2022-10-16T08:09:01;101487.09;;;16.01;100.00
69153;BME280;56261;51.580;4.578;2022-10-16T08:11:26;101481.44;;;16.10;100.00
69153;BME280;56261;51.580;4.578;2022-10-16T08:13:52;101489.50;;;16.32;100.00
69153;BME280;56261;51.580;4.578;2022-10-16T08:16:17;101496.78;;;16.53;100.00
69153;BME280;56261;51.580;4.578;2022-10-16T08:18:43;101506.72;;;15.94;100.00
69153;BME280;56261;51.580;4.578;2022-10-16T08:21:14;101506.63;;;15.58;100.00
69153;BME280;56261;51.580;4.578;2022-10-16T08:23:40;101509.41;;;15.94;100.00
69153;BME280;56261;51.580;4.578;2022-10-16T08:26:06;101515.34;;;16.26;100.00
69153;BME280;56261;51.580;4.578;2022-10-16T08:28:32;101521.50;;;15.84;100.00
69153;BME280;56261;51.580;4.578;2022-10-16T08:31:11;101530.06;;;16.09;100.00
69153;BME280;56261;51.580;4.578;2022-10-16T08:33:38;101526.56;;;15.64;100.00
69153;BME280;56261;51.580;4.578;2022-10-16T08:36:05;101539.09;;;15.86;100.00
69153;BME280;56261;51.580;4.578;2022-10-16T08:38:31;101532.41;;;15.52;100.00
69153;BME280;56261;51.580;4.578;2022-10-16T08:47:30;101546.47;;;15.25;100.00
69153;BME280;56261;51.580;4.578;2022-10-16T08:49:35;101545.00;;;15.37;100.00
69153;BME280;56261;51.580;4.578;2022-10-16T08:52:02;101551.59;;;15.34;100.00
69153;BME280;56261;51.580;4.578;2022-10-16T08:54:43;101558.38;;;15.45;100.00
69153;BME280;56261;51.580;4.578;2022-10-16T08:57:17;101550.69;;;15.57;100.00
69153;BME280;56261;51.580;4.578;2022-10-16T08:59:44;101557.63;;;15.66;100.00
69153;BME280;56261;51.580;4.578;2022-10-16T09:05:21;101551.66;;;16.15;100.00
69153;BME280;56261;51.580;4.578;2022-10-16T09:07:46;101548.25;;;16.43;100.00
69153;BME280;56261;51.580;4.578;2022-10-16T09:10:35;101556.28;;;16.58;100.00
69153;BME280;56261;51.580;4.578;2022-10-16T09:15:50;101555.19;;;16.52;100.00
69153;BME280;56261;51.580;4.578;2022-10-16T09:21:21;101567.50;;;16.62;100.00
69153;BME280;56261;51.580;4.578;2022-10-16T09:23:48;101561.13;;;16.84;100.00
69153;BME280;56261;51.580;4.578;2022-10-16T09:26:15;101564.38;;;17.01;100.00
69153;BME280;56261;51.580;4.578;2022-10-16T09:28:42;101568.38;;;16.84;100.00
69153;BME280;56261;51.580;4.578;2022-10-16T09:31:16;101571.56;;;16.72;100.00
69153;BME280;56261;51.580;4.578;2022-10-16T09:33:44;101565.75;;;16.90;100.00
69153;BME280;56261;51.580;4.578;2022-10-16T09:36:11;101575.91;;;16.73;100.00
69153;BME280;56261;51.580;4.578;2022-10-16T09:38:37;101587.00;;;16.27;100.00
69153;BME280;56261;51.580;4.578;2022-10-16T09:41:21;101588.88;;;16.27;100.00
69153;BME280;56261;51.580;4.578;2022-10-16T09:43:55;101583.41;;;16.20;100.00
69153;BME280;56261;51.580;4.578;2022-10-16T09:48:57;101589.84;;;16.40;100.00
69153;BME280;56261;51.580;4.578;2022-10-16T09:53:55;101581.34;;;16.58;100.00
69153;BME280;56261;51.580;4.578;2022-10-16T09:56:24;101581.47;;;16.72;100.00
69153;BME280;56261;51.580;4.578;2022-10-16T09:59:00;101573.44;;;16.93;100.00
69153;BME280;56261;51.580;4.578;2022-10-16T10:01:51;101572.47;;;17.29;100.00
69153;BME280;56261;51.580;4.578;2022-10-16T10:04:17;101579.41;;;17.10;100.00
69153;BME280;56261;51.580;4.578;2022-10-16T10:06:46;101592.53;;;16.98;100.00
69153;BME280;56261;51.580;4.578;2022-10-16T10:14:27;101595.06;;;17.00;100.00
69153;BME280;56261;51.580;4.578;2022-10-16T10:17:11;101598.91;;;16.91;100.00
69153;BME280;56261;51.580;4.578;2022-10-16T10:20:00;101605.44;;;17.03;100.00
69153;BME280;56261;51.580;4.578;2022-10-16T10:36:22;101625.28;;;17.17;100.00
69153;BME280;56261;51.580;4.578;2022-10-16T10:38:54;101629.75;;;17.10;100.00
69153;BME280;56261;51.580;4.578;2022-10-16T10:49:40;101616.25;;;17.31;100.00
69153;BME280;56261;51.580;4.578;2022-10-16T10:52:26;101620.00;;;17.09;100.00
69153;BME280;56261;51.580;4.578;2022-10-16T10:55:27;101621.34;;;17.19;100.00
69153;BME280;56261;51.580;4.578;2022-10-16T11:04:11;101636.19;;;17.37;100.00
69153;BME280;56261;51.580;4.578;2022-10-16T11:06:48;101646.06;;;17.01;100.00
69153;BME280;56261;51.580;4.578;2022-10-16T11:09:26;101642.38;;;16.88;100.00
69153;BME280;56261;51.580;4.578;2022-10-16T11:12:01;101648.13;;;16.99;100.00
69153;BME280;56261;51.580;4.578;2022-10-16T11:14:35;101640.47;;;16.82;100.00
69153;BME280;56261;51.580;4.578;2022-10-16T11:17:26;101642.88;;;17.13;100.00
69153;BME280;56261;51.580;4.578;2022-10-16T11:25:13;101637.66;;;17.89;100.00
69153;BME280;56261;51.580;4.578;2022-10-16T11:27:50;101639.34;;;17.40;100.00
69153;BME280;56261;51.580;4.578;2022-10-16T11:30:25;101645.72;;;17.61;100.00
69153;BME280;56261;51.580;4.578;2022-10-16T11:35:48;101646.47;;;17.76;100.00
69153;BME280;56261;51.580;4.578;2022-10-16T11:40:54;101648.44;;;17.61;100.00
69153;BME280;56261;51.580;4.578;2022-10-16T11:43:35;101652.66;;;17.42;100.00
69153;BME280;56261;51.580;4.578;2022-10-16T11:46:11;101650.31;;;17.60;100.00
69153;BME280;56261;51.580;4.578;2022-10-16T11:51:42;101658.53;;;17.52;100.00
69153;BME280;56261;51.580;4.578;2022-10-16T11:54:18;101663.13;;;17.30;100.00
69153;BME280;56261;51.580;4.578;2022-10-16T11:56:49;101658.47;;;17.17;100.00
69153;BME280;56261;51.580;4.578;2022-10-16T12:01:57;101654.41;;;17.28;100.00
69153;BME280;56261;51.580;4.578;2022-10-16T12:04:45;101671.81;;;17.04;100.00
69153;BME280;56261;51.580;4.578;2022-10-16T12:07:27;101662.44;;;17.21;100.00
69153;BME280;56261;51.580;4.578;2022-10-16T12:09:57;101663.09;;;17.24;100.00
69153;BME280;56261;51.580;4.578;2022-10-16T12:15:03;101665.25;;;17.13;100.00
69153;BME280;56261;51.580;4.578;2022-10-16T12:17:37;101669.19;;;17.11;100.00
69153;BME280;56261;51.580;4.578;2022-10-16T12:22:41;101664.72;;;17.46;100.00
69153;BME280;56261;51.580;4.578;2022-10-16T12:25:21;101657.00;;;17.15;100.00
69153;BME280;56261;51.580;4.578;2022-10-16T12:27:57;101658.41;;;17.39;100.00
69153;BME280;56261;51.580;4.578;2022-10-16T12:30:25;101665.53;;;17.75;100.00
69153;BME280;56261;51.580;4.578;2022-10-16T12:32:56;101654.88;;;17.60;100.00
69153;BME280;56261;51.580;4.578;2022-10-16T12:35:25;101654.19;;;17.51;100.00
69153;BME280;56261;51.580;4.578;2022-10-16T12:37:51;101667.69;;;17.30;100.00
69153;BME280;56261;51.580;4.578;2022-10-16T12:40:29;101662.91;;;17.53;100.00
69153;BME280;56261;51.580;4.578;2022-10-16T12:42:55;101659.66;;;17.86;100.00
69153;BME280;56261;51.580;4.578;2022-10-16T12:47:52;101647.13;;;18.13;100.00
69153;BME280;56261;51.580;4.578;2022-10-16T12:50:38;101650.34;;;18.37;100.00
69153;BME280;56261;51.580;4.578;2022-10-16T12:53:18;101649.00;;;18.61;100.00
69153;BME280;56261;51.580;4.578;2022-10-16T12:55:54;101653.75;;;18.59;100.00
69153;BME280;56261;51.580;4.578;2022-10-16T12:58:28;101664.63;;;18.72;100.00
69153;BME280;56261;51.580;4.578;2022-10-16T13:15:04;101664.16;;;18.68;100.00
69153;BME280;56261;51.580;4.578;2022-10-16T13:20:56;101670.16;;;18.57;100.00
69153;BME280;56261;51.580;4.578;2022-10-16T13:26:44;101662.47;;;19.22;100.00
69153;BME280;56261;51.580;4.578;2022-10-16T13:29:15;101652.47;;;19.16;100.00
69153;BME280;56261;51.580;4.578;2022-10-16T13:31:42;101654.97;;;19.04;100.00
69153;BME280;56261;51.580;4.578;2022-10-16T13:34:27;101657.66;;;19.24;100.00
69153;BME280;56261;51.580;4.578;2022-10-16T13:36:53;101669.72;;;19.42;100.00
69153;BME280;56261;51.580;4.578;2022-10-16T13:39:29;101664.75;;;19.19;100.00
69153;BME280;56261;51.580;4.578;2022-10-16T13:42:06;101657.66;;;19.38;100.00
69153;BME280;56261;51.580;4.578;2022-10-16T13:44:49;101648.28;;;19.07;100.00
69153;BME280;56261;51.580;4.578;2022-10-16T13:47:26;101648.09;;;19.22;100.00
69153;BME280;56261;51.580;4.578;2022-10-16T13:50:04;101653.50;;;19.28;100.00
69153;BME280;56261;51.580;4.578;2022-10-16T13:52:30;101653.09;;;19.32;100.00
69153;BME280;56261;51.580;4.578;2022-10-16T13:54:56;101652.88;;;19.53;100.00
69153;BME280;56261;51.580;4.578;2022-10-16T13:57:23;101644.75;;;19.60;100.00
69153;BME280;56261;51.580;4.578;2022-10-16T13:59:50;101652.25;;;19.24;100.00
69153;BME280;56261;51.580;4.578;2022-10-16T14:02:21;101653.91;;;19.05;100.00
69153;BME280;56261;51.580;4.578;2022-10-16T14:04:49;101641.03;;;19.54;100.00
69153;BME280;56261;51.580;4.578;2022-10-16T14:07:20;101644.13;;;19.38;100.00
69153;BME280;56261;51.580;4.578;2022-10-16T14:09:50;101647.25;;;19.15;100.00
69153;BME280;56261;51.580;4.578;2022-10-16T14:12:16;101649.06;;;18.81;100.00
69153;BME280;56261;51.580;4.578;2022-10-16T14:14:44;101653.22;;;18.83;100.00
69153;BME280;56261;51.580;4.578;2022-10-16T14:17:31;101655.31;;;18.81;100.00
69153;BME280;56261;51.580;4.578;2022-10-16T14:19:59;101648.66;;;18.91;100.00
69153;BME280;56261;51.580;4.578;2022-10-16T14:24:50;101650.53;;;18.90;100.00
69153;BME280;56261;51.580;4.578;2022-10-16T14:27:33;101655.53;;;18.86;100.00
69153;BME280;56261;51.580;4.578;2022-10-16T14:30:26;101652.00;;;18.93;100.00
69153;BME280;56261;51.580;4.578;2022-10-16T14:33:00;101657.41;;;18.93;100.00
69153;BME280;56261;51.580;4.578;2022-10-16T14:37:58;101635.38;;;18.96;100.00
69153;BME280;56261;51.580;4.578;2022-10-16T14:40:26;101630.59;;;18.84;100.00
69153;BME280;56261;51.580;4.578;2022-10-16T14:42:52;101649.66;;;18.76;100.00
69153;BME280;56261;51.580;4.578;2022-10-16T14:45:24;101646.59;;;18.86;100.00
69153;BME280;56261;51.580;4.578;2022-10-16T14:47:57;101642.16;;;18.72;100.00
69153;BME280;56261;51.580;4.578;2022-10-16T14:50:23;101648.34;;;18.52;100.00